sensor_id;sensor_type;location;lat;lon;timestamp;temperature;humidity
38183;DHT22;23991;52.430;10.586;2022-07-06T00:01:16;19.20;56.10
38183;DHT22;23991;52.430;10.586;2022-07-06T00:03:42;19.10;56.60
38183;DHT22;23991;52.430;10.586;2022-07-06T00:06:08;19.10;56.50
38183;DHT22;23991;52.430;10.586;2022-07-06T00:08:33;19.00;56.80
38183;DHT22;23991;52.430;10.586;2022-07-06T00:10:59;19.00;57.00
38183;DHT22;23991;52.430;10.586;2022-07-06T00:13:25;18.90;57.20
38183;DHT22;23991;52.430;10.586;2022-07-06T00:15:50;18.90;57.30
38183;DHT22;23991;52.430;10.586;2022-07-06T00:18:16;18.90;57.60
38183;DHT22;23991;52.430;10.586;2022-07-06T00:20:41;18.80;57.70
38183;DHT22;23991;52.430;10.586;2022-07-06T00:23:07;18.80;57.60
38183;DHT22;23991;52.430;10.586;2022-07-06T00:25:33;18.80;57.80
38183;DHT22;23991;52.430;10.586;2022-07-06T00:27:58;18.80;57.90
38183;DHT22;23991;52.430;10.586;2022-07-06T00:30:24;18.70;58.10
38183;DHT22;23991;52.430;10.586;2022-07-06T00:32:49;18.70;58.20
38183;DHT22;23991;52.430;10.586;2022-07-06T00:35:15;18.60;58.40
38183;DHT22;23991;52.430;10.586;2022-07-06T00:37:40;18.60;58.70
38183;DHT22;23991;52.430;10.586;2022-07-06T00:40:06;18.50;58.60
38183;DHT22;23991;52.430;10.586;2022-07-06T00:42:45;18.50;58.80
38183;DHT22;23991;52.430;10.586;2022-07-06T00:45:13;18.50;58.80
38183;DHT22;23991;52.430;10.586;2022-07-06T00:47:40;18.50;59.00
38183;DHT22;23991;52.430;10.586;2022-07-06T00:50:07;18.50;59.10
38183;DHT22;23991;52.430;10.586;2022-07-06T00:52:55;18.40;59.10
38183;DHT22;23991;52.430;10.586;2022-07-06T00:55:23;18.40;59.20
38183;DHT22;23991;52.430;10.586;2022-07-06T00:57:49;18.40;59.30
38183;DHT22;23991;52.430;10.586;2022-07-06T01:00:17;18.40;59.40
38183;DHT22;23991;52.430;10.586;2022-07-06T01:02:44;18.30;59.40
38183;DHT22;23991;52.430;10.586;2022-07-06T01:05:11;18.30;59.40
38183;DHT22;23991;52.430;10.586;2022-07-06T01:07:39;18.30;59.40
38183;DHT22;23991;52.430;10.586;2022-07-06T01:10:07;18.30;59.60
38183;DHT22;23991;52.430;10.586;2022-07-06T01:12:35;18.30;59.90
38183;DHT22;23991;52.430;10.586;2022-07-06T01:15:04;18.30;59.80
38183;DHT22;23991;52.430;10.586;2022-07-06T01:17:30;18.20;59.90
38183;DHT22;23991;52.430;10.586;2022-07-06T01:19:55;18.20;60.00
38183;DHT22;23991;52.430;10.586;2022-07-06T01:22:21;18.20;60.20
38183;DHT22;23991;52.430;10.586;2022-07-06T01:24:46;18.20;60.20
38183;DHT22;23991;52.430;10.586;2022-07-06T01:27:12;18.10;60.20
38183;DHT22;23991;52.430;10.586;2022-07-06T01:29:38;18.10;60.20
38183;DHT22;23991;52.430;10.586;2022-07-06T01:32:04;18.10;60.50
38183;DHT22;23991;52.430;10.586;2022-07-06T01:34:29;18.10;60.50
38183;DHT22;23991;52.430;10.586;2022-07-06T01:36:55;18.00;60.60
38183;DHT22;23991;52.430;10.586;2022-07-06T01:39:20;18.00;60.80
38183;DHT22;23991;52.430;10.586;2022-07-06T01:41:46;18.00;60.90
38183;DHT22;23991;52.430;10.586;2022-07-06T01:44:12;18.00;60.80
38183;DHT22;23991;52.430;10.586;2022-07-06T01:46:38;17.90;60.90
38183;DHT22;23991;52.430;10.586;2022-07-06T01:49:05;18.00;60.70
38183;DHT22;23991;52.430;10.586;2022-07-06T01:51:31;17.90;60.70
38183;DHT22;23991;52.430;10.586;2022-07-06T01:53:56;17.90;60.80
38183;DHT22;23991;52.430;10.586;2022-07-06T01:56:22;17.80;61.00
38183;DHT22;23991;52.430;10.586;2022-07-06T01:58:48;17.80;61.00
38183;DHT22;23991;52.430;10.586;2022-07-06T02:01:16;17.80;61.30
38183;DHT22;23991;52.430;10.586;2022-07-06T02:03:42;17.80;61.30
38183;DHT22;23991;52.430;10.586;2022-07-06T02:06:08;17.80;61.40
38183;DHT22;23991;52.430;10.586;2022-07-06T02:08:34;17.80;61.40
38183;DHT22;23991;52.430;10.586;2022-07-06T02:11:00;17.80;61.40
38183;DHT22;23991;52.430;10.586;2022-07-06T02:13:26;17.80;61.50
38183;DHT22;23991;52.430;10.586;2022-07-06T02:15:52;17.80;61.40
38183;DHT22;23991;52.430;10.586;2022-07-06T02:18:17;17.80;61.20
38183;DHT22;23991;52.430;10.586;2022-07-06T02:20:43;17.70;61.10
38183;DHT22;23991;52.430;10.586;2022-07-06T02:23:09;17.70;61.20
38183;DHT22;23991;52.430;10.586;2022-07-06T02:25:34;17.70;61.00
38183;DHT22;23991;52.430;10.586;2022-07-06T02:28:00;17.70;60.90
38183;DHT22;23991;52.430;10.586;2022-07-06T02:30:25;17.60;60.90
38183;DHT22;23991;52.430;10.586;2022-07-06T02:32:51;17.60;61.00
38183;DHT22;23991;52.430;10.586;2022-07-06T02:35:17;17.60;61.10
38183;DHT22;23991;52.430;10.586;2022-07-06T02:37:42;17.50;61.10
38183;DHT22;23991;52.430;10.586;2022-07-06T02:40:08;17.50;61.20
38183;DHT22;23991;52.430;10.586;2022-07-06T02:42:34;17.50;61.10
38183;DHT22;23991;52.430;10.586;2022-07-06T02:44:59;17.50;61.00
38183;DHT22;23991;52.430;10.586;2022-07-06T02:47:25;17.50;61.00
38183;DHT22;23991;52.430;10.586;2022-07-06T02:49:52;17.50;61.10
38183;DHT22;23991;52.430;10.586;2022-07-06T02:52:17;17.40;61.10
38183;DHT22;23991;52.430;10.586;2022-07-06T02:54:43;17.50;61.10
38183;DHT22;23991;52.430;10.586;2022-07-06T02:57:08;17.40;61.20
38183;DHT22;23991;52.430;10.586;2022-07-06T02:59:34;17.50;61.30
38183;DHT22;23991;52.430;10.586;2022-07-06T03:01:59;17.40;61.30
38183;DHT22;23991;52.430;10.586;2022-07-06T03:04:25;17.40;61.30
38183;DHT22;23991;52.430;10.586;2022-07-06T03:06:50;17.40;61.30
38183;DHT22;23991;52.430;10.586;2022-07-06T03:09:16;17.30;61.20
38183;DHT22;23991;52.430;10.586;2022-07-06T03:11:41;17.30;61.50
38183;DHT22;23991;52.430;10.586;2022-07-06T03:14:07;17.30;61.40
38183;DHT22;23991;52.430;10.586;2022-07-06T03:16:32;17.40;61.40
38183;DHT22;23991;52.430;10.586;2022-07-06T03:18:58;17.30;61.60
38183;DHT22;23991;52.430;10.586;2022-07-06T03:21:24;17.40;61.50
38183;DHT22;23991;52.430;10.586;2022-07-06T03:23:50;17.30;61.50
38183;DHT22;23991;52.430;10.586;2022-07-06T03:26:16;17.40;61.60
38183;DHT22;23991;52.430;10.586;2022-07-06T03:28:41;17.40;61.50
38183;DHT22;23991;52.430;10.586;2022-07-06T03:31:07;17.30;61.60
38183;DHT22;23991;52.430;10.586;2022-07-06T03:33:32;17.40;61.50
38183;DHT22;23991;52.430;10.586;2022-07-06T03:35:58;17.30;61.50
38183;DHT22;23991;52.430;10.586;2022-07-06T03:38:23;17.30;61.50
38183;DHT22;23991;52.430;10.586;2022-07-06T03:40:49;17.30;61.30
38183;DHT22;23991;52.430;10.586;2022-07-06T03:43:14;17.30;61.30
38183;DHT22;23991;52.430;10.586;2022-07-06T03:45:40;17.30;61.30
38183;DHT22;23991;52.430;10.586;2022-07-06T03:48:05;17.30;61.40
38183;DHT22;23991;52.430;10.586;2022-07-06T03:50:31;17.30;61.40
38183;DHT22;23991;52.430;10.586;2022-07-06T03:52:57;17.30;61.30
38183;DHT22;23991;52.430;10.586;2022-07-06T03:55:22;17.30;61.40
38183;DHT22;23991;52.430;10.586;2022-07-06T03:57:48;17.30;61.60
38183;DHT22;23991;52.430;10.586;2022-07-06T04:00:14;17.30;61.60
38183;DHT22;23991;52.430;10.586;2022-07-06T04:02:39;17.30;61.60
38183;DHT22;23991;52.430;10.586;2022-07-06T04:05:05;17.40;61.50
38183;DHT22;23991;52.430;10.586;2022-07-06T04:07:31;17.40;61.60
38183;DHT22;23991;52.430;10.586;2022-07-06T04:09:57;17.50;61.60
38183;DHT22;23991;52.430;10.586;2022-07-06T04:12:22;17.50;61.50
38183;DHT22;23991;52.430;10.586;2022-07-06T04:14:48;17.60;61.20
38183;DHT22;23991;52.430;10.586;2022-07-06T04:17:13;17.70;61.00
38183;DHT22;23991;52.430;10.586;2022-07-06T04:19:57;17.70;61.30
38183;DHT22;23991;52.430;10.586;2022-07-06T04:22:23;17.80;60.80
38183;DHT22;23991;52.430;10.586;2022-07-06T04:24:48;17.80;60.60
38183;DHT22;23991;52.430;10.586;2022-07-06T04:27:14;17.80;60.40
38183;DHT22;23991;52.430;10.586;2022-07-06T04:29:39;17.90;60.20
38183;DHT22;23991;52.430;10.586;2022-07-06T04:32:05;18.00;60.00
38183;DHT22;23991;52.430;10.586;2022-07-06T04:34:31;18.00;59.90
38183;DHT22;23991;52.430;10.586;2022-07-06T04:36:57;18.00;59.90
38183;DHT22;23991;52.430;10.586;2022-07-06T04:39:22;18.00;60.00
38183;DHT22;23991;52.430;10.586;2022-07-06T04:41:47;18.10;60.10
38183;DHT22;23991;52.430;10.586;2022-07-06T04:44:13;18.20;59.80
38183;DHT22;23991;52.430;10.586;2022-07-06T04:46:38;18.20;59.70
38183;DHT22;23991;52.430;10.586;2022-07-06T04:49:04;18.30;59.20
38183;DHT22;23991;52.430;10.586;2022-07-06T04:51:29;18.30;59.00
38183;DHT22;23991;52.430;10.586;2022-07-06T04:53:55;18.30;58.80
38183;DHT22;23991;52.430;10.586;2022-07-06T04:56:20;18.30;58.90
38183;DHT22;23991;52.430;10.586;2022-07-06T04:58:46;18.40;58.90
38183;DHT22;23991;52.430;10.586;2022-07-06T05:01:11;18.50;58.90
38183;DHT22;23991;52.430;10.586;2022-07-06T05:03:37;18.40;58.80
38183;DHT22;23991;52.430;10.586;2022-07-06T05:06:06;18.50;58.90
38183;DHT22;23991;52.430;10.586;2022-07-06T05:08:32;18.50;58.60
38183;DHT22;23991;52.430;10.586;2022-07-06T05:10:57;18.60;58.30
38183;DHT22;23991;52.430;10.586;2022-07-06T05:13:23;18.80;58.00
38183;DHT22;23991;52.430;10.586;2022-07-06T05:15:48;18.60;58.70
38183;DHT22;23991;52.430;10.586;2022-07-06T05:18:14;18.40;58.70
38183;DHT22;23991;52.430;10.586;2022-07-06T05:20:39;18.40;58.90
38183;DHT22;23991;52.430;10.586;2022-07-06T05:23:05;18.40;58.80
38183;DHT22;23991;52.430;10.586;2022-07-06T05:25:30;18.60;58.90
38183;DHT22;23991;52.430;10.586;2022-07-06T05:27:58;18.50;58.70
38183;DHT22;23991;52.430;10.586;2022-07-06T05:30:24;18.80;58.60
38183;DHT22;23991;52.430;10.586;2022-07-06T05:32:50;18.70;58.50
38183;DHT22;23991;52.430;10.586;2022-07-06T05:35:15;18.80;58.00
38183;DHT22;23991;52.430;10.586;2022-07-06T05:37:41;18.90;58.00
38183;DHT22;23991;52.430;10.586;2022-07-06T05:40:07;19.00;57.60
38183;DHT22;23991;52.430;10.586;2022-07-06T05:42:33;19.10;57.60
38183;DHT22;23991;52.430;10.586;2022-07-06T05:44:58;19.10;57.20
38183;DHT22;23991;52.430;10.586;2022-07-06T05:47:24;19.00;57.40
38183;DHT22;23991;52.430;10.586;2022-07-06T05:50:08;19.00;57.40
38183;DHT22;23991;52.430;10.586;2022-07-06T05:52:41;19.10;57.40
38183;DHT22;23991;52.430;10.586;2022-07-06T05:55:09;19.20;57.70
38183;DHT22;23991;52.430;10.586;2022-07-06T05:57:34;19.20;57.20
38183;DHT22;23991;52.430;10.586;2022-07-06T06:00:00;19.10;57.30
38183;DHT22;23991;52.430;10.586;2022-07-06T06:02:25;19.20;57.30
38183;DHT22;23991;52.430;10.586;2022-07-06T06:04:51;19.30;56.60
38183;DHT22;23991;52.430;10.586;2022-07-06T06:07:16;19.50;55.90
38183;DHT22;23991;52.430;10.586;2022-07-06T06:09:42;19.70;55.50
38183;DHT22;23991;52.430;10.586;2022-07-06T06:12:08;19.70;55.30
38183;DHT22;23991;52.430;10.586;2022-07-06T06:14:33;19.80;55.10
38183;DHT22;23991;52.430;10.586;2022-07-06T06:16:59;19.80;54.20
38183;DHT22;23991;52.430;10.586;2022-07-06T06:19:25;20.00;54.20
38183;DHT22;23991;52.430;10.586;2022-07-06T06:21:50;20.10;53.80
38183;DHT22;23991;52.430;10.586;2022-07-06T06:24:17;20.20;53.70
38183;DHT22;23991;52.430;10.586;2022-07-06T06:26:43;20.20;53.70
38183;DHT22;23991;52.430;10.586;2022-07-06T06:29:08;20.30;52.70
38183;DHT22;23991;52.430;10.586;2022-07-06T06:31:34;20.10;51.80
38183;DHT22;23991;52.430;10.586;2022-07-06T06:34:00;20.00;51.80
38183;DHT22;23991;52.430;10.586;2022-07-06T06:36:25;20.10;51.10
38183;DHT22;23991;52.430;10.586;2022-07-06T06:38:51;20.20;51.10
38183;DHT22;23991;52.430;10.586;2022-07-06T06:41:16;20.20;50.80
38183;DHT22;23991;52.430;10.586;2022-07-06T06:43:43;20.30;51.20
38183;DHT22;23991;52.430;10.586;2022-07-06T06:46:11;20.20;50.60
38183;DHT22;23991;52.430;10.586;2022-07-06T06:48:36;20.30;50.90
38183;DHT22;23991;52.430;10.586;2022-07-06T06:51:03;20.40;50.20
38183;DHT22;23991;52.430;10.586;2022-07-06T06:53:29;20.30;50.50
38183;DHT22;23991;52.430;10.586;2022-07-06T06:55:54;20.30;50.70
38183;DHT22;23991;52.430;10.586;2022-07-06T06:58:20;20.40;50.50
38183;DHT22;23991;52.430;10.586;2022-07-06T07:00:45;20.50;50.50
38183;DHT22;23991;52.430;10.586;2022-07-06T07:03:12;20.50;50.80
38183;DHT22;23991;52.430;10.586;2022-07-06T07:05:38;20.40;50.80
38183;DHT22;23991;52.430;10.586;2022-07-06T07:08:04;20.40;50.90
38183;DHT22;23991;52.430;10.586;2022-07-06T07:10:29;20.30;51.50
38183;DHT22;23991;52.430;10.586;2022-07-06T07:12:55;20.20;51.60
38183;DHT22;23991;52.430;10.586;2022-07-06T07:15:20;20.00;51.80
38183;DHT22;23991;52.430;10.586;2022-07-06T07:17:46;20.20;51.40
38183;DHT22;23991;52.430;10.586;2022-07-06T07:20:12;20.40;51.40
38183;DHT22;23991;52.430;10.586;2022-07-06T07:22:37;20.40;50.70
38183;DHT22;23991;52.430;10.586;2022-07-06T07:25:04;20.30;50.70
38183;DHT22;23991;52.430;10.586;2022-07-06T07:27:30;20.40;50.90
38183;DHT22;23991;52.430;10.586;2022-07-06T07:29:55;20.60;50.80
38183;DHT22;23991;52.430;10.586;2022-07-06T07:32:21;20.80;50.40
38183;DHT22;23991;52.430;10.586;2022-07-06T07:34:46;20.90;49.20
38183;DHT22;23991;52.430;10.586;2022-07-06T07:37:12;20.80;49.40
38183;DHT22;23991;52.430;10.586;2022-07-06T07:39:38;20.80;49.20
38183;DHT22;23991;52.430;10.586;2022-07-06T07:42:03;20.90;48.90
38183;DHT22;23991;52.430;10.586;2022-07-06T07:44:29;20.80;48.90
38183;DHT22;23991;52.430;10.586;2022-07-06T07:46:54;20.80;48.90
38183;DHT22;23991;52.430;10.586;2022-07-06T07:49:20;20.80;48.80
38183;DHT22;23991;52.430;10.586;2022-07-06T07:51:47;20.90;48.40
38183;DHT22;23991;52.430;10.586;2022-07-06T07:54:13;20.80;48.70
38183;DHT22;23991;52.430;10.586;2022-07-06T07:56:39;20.90;48.50
38183;DHT22;23991;52.430;10.586;2022-07-06T07:59:08;20.90;47.10
38183;DHT22;23991;52.430;10.586;2022-07-06T08:01:34;20.70;47.70
38183;DHT22;23991;52.430;10.586;2022-07-06T08:03:59;20.70;47.40
38183;DHT22;23991;52.430;10.586;2022-07-06T08:06:25;20.70;47.80
38183;DHT22;23991;52.430;10.586;2022-07-06T08:08:51;20.80;47.90
38183;DHT22;23991;52.430;10.586;2022-07-06T08:11:17;21.00;48.40
38183;DHT22;23991;52.430;10.586;2022-07-06T08:13:42;21.10;47.50
38183;DHT22;23991;52.430;10.586;2022-07-06T08:16:08;21.30;47.00
38183;DHT22;23991;52.430;10.586;2022-07-06T08:18:35;21.20;46.80
38183;DHT22;23991;52.430;10.586;2022-07-06T08:21:01;21.20;47.30
38183;DHT22;23991;52.430;10.586;2022-07-06T08:23:26;21.10;46.80
38183;DHT22;23991;52.430;10.586;2022-07-06T08:25:52;21.10;47.10
38183;DHT22;23991;52.430;10.586;2022-07-06T08:28:17;21.10;47.00
38183;DHT22;23991;52.430;10.586;2022-07-06T08:30:43;21.20;46.90
38183;DHT22;23991;52.430;10.586;2022-07-06T08:33:08;21.20;46.90
38183;DHT22;23991;52.430;10.586;2022-07-06T08:35:34;21.00;47.30
38183;DHT22;23991;52.430;10.586;2022-07-06T08:37:59;20.90;47.30
38183;DHT22;23991;52.430;10.586;2022-07-06T08:40:26;20.90;46.20
38183;DHT22;23991;52.430;10.586;2022-07-06T08:42:54;21.10;46.00
38183;DHT22;23991;52.430;10.586;2022-07-06T08:45:20;21.30;45.40
38183;DHT22;23991;52.430;10.586;2022-07-06T08:47:49;21.30;44.90
38183;DHT22;23991;52.430;10.586;2022-07-06T08:50:15;21.30;44.70
38183;DHT22;23991;52.430;10.586;2022-07-06T08:52:41;21.40;44.20
38183;DHT22;23991;52.430;10.586;2022-07-06T08:55:08;21.10;44.90
38183;DHT22;23991;52.430;10.586;2022-07-06T08:57:34;21.20;44.10
38183;DHT22;23991;52.430;10.586;2022-07-06T09:00:00;21.40;44.80
38183;DHT22;23991;52.430;10.586;2022-07-06T09:02:27;21.70;44.40
38183;DHT22;23991;52.430;10.586;2022-07-06T09:04:55;21.70;43.90
38183;DHT22;23991;52.430;10.586;2022-07-06T09:07:22;21.90;43.20
38183;DHT22;23991;52.430;10.586;2022-07-06T09:09:49;22.10;42.40
38183;DHT22;23991;52.430;10.586;2022-07-06T09:12:14;22.00;41.60
38183;DHT22;23991;52.430;10.586;2022-07-06T09:14:40;21.80;42.30
38183;DHT22;23991;52.430;10.586;2022-07-06T09:17:06;22.00;42.20
38183;DHT22;23991;52.430;10.586;2022-07-06T09:19:34;22.30;41.30
38183;DHT22;23991;52.430;10.586;2022-07-06T09:22:00;22.30;42.50
38183;DHT22;23991;52.430;10.586;2022-07-06T09:24:26;22.40;41.20
38183;DHT22;23991;52.430;10.586;2022-07-06T09:26:56;22.30;41.90
38183;DHT22;23991;52.430;10.586;2022-07-06T09:29:30;22.80;41.30
38183;DHT22;23991;52.430;10.586;2022-07-06T09:32:00;22.80;41.20
38183;DHT22;23991;52.430;10.586;2022-07-06T09:34:53;22.60;41.30
38183;DHT22;23991;52.430;10.586;2022-07-06T09:37:21;22.90;40.30
38183;DHT22;23991;52.430;10.586;2022-07-06T09:39:49;22.80;40.40
38183;DHT22;23991;52.430;10.586;2022-07-06T09:42:14;22.80;39.80
38183;DHT22;23991;52.430;10.586;2022-07-06T09:44:41;22.90;37.70
38183;DHT22;23991;52.430;10.586;2022-07-06T09:47:08;23.00;39.60
38183;DHT22;23991;52.430;10.586;2022-07-06T09:49:35;23.00;39.30
38183;DHT22;23991;52.430;10.586;2022-07-06T09:52:03;22.70;39.40
38183;DHT22;23991;52.430;10.586;2022-07-06T09:54:29;22.50;40.10
38183;DHT22;23991;52.430;10.586;2022-07-06T09:56:56;22.70;39.60
38183;DHT22;23991;52.430;10.586;2022-07-06T09:59:24;23.00;39.40
38183;DHT22;23991;52.430;10.586;2022-07-06T10:01:52;22.90;38.80
38183;DHT22;23991;52.430;10.586;2022-07-06T10:04:19;22.80;39.80
38183;DHT22;23991;52.430;10.586;2022-07-06T10:06:46;22.80;38.90
38183;DHT22;23991;52.430;10.586;2022-07-06T10:09:13;22.80;38.50
38183;DHT22;23991;52.430;10.586;2022-07-06T10:11:42;22.60;39.20
38183;DHT22;23991;52.430;10.586;2022-07-06T10:14:08;22.60;39.30
38183;DHT22;23991;52.430;10.586;2022-07-06T10:16:36;22.60;38.80
38183;DHT22;23991;52.430;10.586;2022-07-06T10:19:05;22.20;39.10
38183;DHT22;23991;52.430;10.586;2022-07-06T10:21:31;22.10;39.90
38183;DHT22;23991;52.430;10.586;2022-07-06T10:23:57;22.10;40.20
38183;DHT22;23991;52.430;10.586;2022-07-06T10:26:25;22.30;39.30
38183;DHT22;23991;52.430;10.586;2022-07-06T10:28:52;22.50;39.20
38183;DHT22;23991;52.430;10.586;2022-07-06T10:31:19;22.70;39.30
38183;DHT22;23991;52.430;10.586;2022-07-06T10:33:46;22.50;39.80
38183;DHT22;23991;52.430;10.586;2022-07-06T10:36:13;22.30;40.30
38183;DHT22;23991;52.430;10.586;2022-07-06T10:38:40;22.10;40.40
38183;DHT22;23991;52.430;10.586;2022-07-06T10:41:07;21.80;40.80
38183;DHT22;23991;52.430;10.586;2022-07-06T10:46:06;22.10;41.40
38183;DHT22;23991;52.430;10.586;2022-07-06T10:48:40;22.00;40.80
38183;DHT22;23991;52.430;10.586;2022-07-06T10:51:06;21.90;40.90
38183;DHT22;23991;52.430;10.586;2022-07-06T10:53:36;21.80;41.50
38183;DHT22;23991;52.430;10.586;2022-07-06T10:58:50;22.10;40.70
38183;DHT22;23991;52.430;10.586;2022-07-06T11:01:17;22.10;40.60
38183;DHT22;23991;52.430;10.586;2022-07-06T11:03:49;22.30;40.10
38183;DHT22;23991;52.430;10.586;2022-07-06T11:06:21;22.30;39.10
38183;DHT22;23991;52.430;10.586;2022-07-06T11:08:55;22.10;39.90
38183;DHT22;23991;52.430;10.586;2022-07-06T11:11:38;22.10;40.40
38183;DHT22;23991;52.430;10.586;2022-07-06T11:14:17;22.10;40.10
38183;DHT22;23991;52.430;10.586;2022-07-06T11:19:19;22.00;40.70
38183;DHT22;23991;52.430;10.586;2022-07-06T11:22:08;21.90;40.80
38183;DHT22;23991;52.430;10.586;2022-07-06T11:24:35;21.90;41.10
38183;DHT22;23991;52.430;10.586;2022-07-06T11:27:01;21.70;41.30
38183;DHT22;23991;52.430;10.586;2022-07-06T11:29:28;21.90;41.10
38183;DHT22;23991;52.430;10.586;2022-07-06T11:31:59;22.00;41.10
38183;DHT22;23991;52.430;10.586;2022-07-06T11:34:31;21.90;40.70
38183;DHT22;23991;52.430;10.586;2022-07-06T11:39:22;22.10;40.00
38183;DHT22;23991;52.430;10.586;2022-07-06T11:41:48;22.00;40.70
38183;DHT22;23991;52.430;10.586;2022-07-06T11:44:14;22.00;40.50
38183;DHT22;23991;52.430;10.586;2022-07-06T11:46:39;22.10;40.30
38183;DHT22;23991;52.430;10.586;2022-07-06T11:49:07;22.00;40.50
38183;DHT22;23991;52.430;10.586;2022-07-06T11:51:35;22.00;40.60
38183;DHT22;23991;52.430;10.586;2022-07-06T11:56:35;22.50;40.10
38183;DHT22;23991;52.430;10.586;2022-07-06T11:59:02;22.70;39.80
38183;DHT22;23991;52.430;10.586;2022-07-06T12:01:29;22.70;39.80
38183;DHT22;23991;52.430;10.586;2022-07-06T12:04:00;22.60;39.60
38183;DHT22;23991;52.430;10.586;2022-07-06T12:06:27;22.40;40.10
38183;DHT22;23991;52.430;10.586;2022-07-06T12:08:55;22.40;40.30
38183;DHT22;23991;52.430;10.586;2022-07-06T12:11:27;22.50;39.90
38183;DHT22;23991;52.430;10.586;2022-07-06T12:14:02;22.70;39.00
38183;DHT22;23991;52.430;10.586;2022-07-06T12:16:35;22.70;39.00
38183;DHT22;23991;52.430;10.586;2022-07-06T12:19:03;22.80;39.20
38183;DHT22;23991;52.430;10.586;2022-07-06T12:21:29;22.60;39.40
38183;DHT22;23991;52.430;10.586;2022-07-06T12:23:55;22.70;39.40
38183;DHT22;23991;52.430;10.586;2022-07-06T12:26:23;22.70;39.30
38183;DHT22;23991;52.430;10.586;2022-07-06T12:29:06;22.60;39.70
38183;DHT22;23991;52.430;10.586;2022-07-06T12:31:40;22.40;39.90
38183;DHT22;23991;52.430;10.586;2022-07-06T12:34:19;22.40;39.90
38183;DHT22;23991;52.430;10.586;2022-07-06T12:36:47;22.50;39.90
38183;DHT22;23991;52.430;10.586;2022-07-06T12:39:14;22.70;39.40
38183;DHT22;23991;52.430;10.586;2022-07-06T12:42:06;22.60;39.10
38183;DHT22;23991;52.430;10.586;2022-07-06T12:44:31;22.40;38.80
38183;DHT22;23991;52.430;10.586;2022-07-06T12:49:29;22.30;39.60
38183;DHT22;23991;52.430;10.586;2022-07-06T12:52:08;22.30;39.10
38183;DHT22;23991;52.430;10.586;2022-07-06T12:57:13;22.50;38.70
38183;DHT22;23991;52.430;10.586;2022-07-06T13:02:22;22.80;39.40
38183;DHT22;23991;52.430;10.586;2022-07-06T13:04:59;22.60;39.30
38183;DHT22;23991;52.430;10.586;2022-07-06T13:07:26;22.70;39.80
38183;DHT22;23991;52.430;10.586;2022-07-06T13:09:52;22.80;39.60
38183;DHT22;23991;52.430;10.586;2022-07-06T13:12:19;23.00;39.30
38183;DHT22;23991;52.430;10.586;2022-07-06T13:14:44;22.90;38.90
38183;DHT22;23991;52.430;10.586;2022-07-06T13:17:10;23.10;37.60
38183;DHT22;23991;52.430;10.586;2022-07-06T13:19:35;23.00;36.90
38183;DHT22;23991;52.430;10.586;2022-07-06T13:22:01;23.20;36.50
38183;DHT22;23991;52.430;10.586;2022-07-06T13:24:26;23.00;36.80
38183;DHT22;23991;52.430;10.586;2022-07-06T13:26:54;23.00;37.00
38183;DHT22;23991;52.430;10.586;2022-07-06T13:29:19;22.70;36.80
38183;DHT22;23991;52.430;10.586;2022-07-06T13:31:45;22.80;36.50
38183;DHT22;23991;52.430;10.586;2022-07-06T13:34:10;22.40;36.90
38183;DHT22;23991;52.430;10.586;2022-07-06T13:36:36;22.40;37.20
38183;DHT22;23991;52.430;10.586;2022-07-06T13:39:03;22.40;37.30
38183;DHT22;23991;52.430;10.586;2022-07-06T13:41:28;22.30;37.60
38183;DHT22;23991;52.430;10.586;2022-07-06T13:43:54;22.50;38.10
38183;DHT22;23991;52.430;10.586;2022-07-06T13:46:19;22.50;38.10
38183;DHT22;23991;52.430;10.586;2022-07-06T13:48:46;22.80;37.80
38183;DHT22;23991;52.430;10.586;2022-07-06T13:51:12;22.80;38.20
38183;DHT22;23991;52.430;10.586;2022-07-06T13:53:38;22.90;38.10
38183;DHT22;23991;52.430;10.586;2022-07-06T13:56:04;22.60;37.60
38183;DHT22;23991;52.430;10.586;2022-07-06T13:58:30;22.80;37.80
38183;DHT22;23991;52.430;10.586;2022-07-06T14:00:56;23.10;37.60
38183;DHT22;23991;52.430;10.586;2022-07-06T14:03:21;23.30;37.50
38183;DHT22;23991;52.430;10.586;2022-07-06T14:05:53;23.40;37.70
38183;DHT22;23991;52.430;10.586;2022-07-06T14:08:18;23.90;36.70
38183;DHT22;23991;52.430;10.586;2022-07-06T14:10:44;24.30;36.10
38183;DHT22;23991;52.430;10.586;2022-07-06T14:13:09;24.30;35.60
38183;DHT22;23991;52.430;10.586;2022-07-06T14:15:35;24.30;35.40
38183;DHT22;23991;52.430;10.586;2022-07-06T14:18:00;24.20;35.60
38183;DHT22;23991;52.430;10.586;2022-07-06T14:20:26;24.40;35.20
38183;DHT22;23991;52.430;10.586;2022-07-06T14:22:51;24.60;34.40
38183;DHT22;23991;52.430;10.586;2022-07-06T14:25:17;24.70;34.70
38183;DHT22;23991;52.430;10.586;2022-07-06T14:27:42;24.90;33.60
38183;DHT22;23991;52.430;10.586;2022-07-06T14:30:09;24.70;34.50
38183;DHT22;23991;52.430;10.586;2022-07-06T14:32:35;24.60;34.90
38183;DHT22;23991;52.430;10.586;2022-07-06T14:35:00;24.60;34.80
38183;DHT22;23991;52.430;10.586;2022-07-06T14:37:26;24.40;34.70
38183;DHT22;23991;52.430;10.586;2022-07-06T14:39:51;24.70;35.10
38183;DHT22;23991;52.430;10.586;2022-07-06T14:42:17;24.80;35.20
38183;DHT22;23991;52.430;10.586;2022-07-06T14:44:43;24.90;34.70
38183;DHT22;23991;52.430;10.586;2022-07-06T14:47:08;25.00;34.50
38183;DHT22;23991;52.430;10.586;2022-07-06T14:49:34;25.10;34.70
38183;DHT22;23991;52.430;10.586;2022-07-06T14:51:59;24.90;34.30
38183;DHT22;23991;52.430;10.586;2022-07-06T14:54:25;24.80;34.60
38183;DHT22;23991;52.430;10.586;2022-07-06T14:56:51;24.70;34.80
38183;DHT22;23991;52.430;10.586;2022-07-06T14:59:16;24.40;35.00
38183;DHT22;23991;52.430;10.586;2022-07-06T15:01:42;24.20;35.50
38183;DHT22;23991;52.430;10.586;2022-07-06T15:04:08;24.00;35.30
38183;DHT22;23991;52.430;10.586;2022-07-06T15:06:33;24.00;36.00
38183;DHT22;23991;52.430;10.586;2022-07-06T15:08:59;24.10;36.30
38183;DHT22;23991;52.430;10.586;2022-07-06T15:11:29;24.20;35.10
38183;DHT22;23991;52.430;10.586;2022-07-06T15:13:55;23.80;35.00
38183;DHT22;23991;52.430;10.586;2022-07-06T15:16:20;24.00;34.70
38183;DHT22;23991;52.430;10.586;2022-07-06T15:18:46;23.80;34.70
38183;DHT22;23991;52.430;10.586;2022-07-06T15:21:12;23.80;34.50
38183;DHT22;23991;52.430;10.586;2022-07-06T15:23:49;24.10;34.40
38183;DHT22;23991;52.430;10.586;2022-07-06T15:26:15;24.10;34.60
38183;DHT22;23991;52.430;10.586;2022-07-06T15:28:41;24.00;35.20
38183;DHT22;23991;52.430;10.586;2022-07-06T15:31:06;23.80;35.70
38183;DHT22;23991;52.430;10.586;2022-07-06T15:33:32;24.00;35.60